Time;durP1;ratioP1;P1;durP2;ratioP2;P2;SDS_P1;SDS_P2;PMS_P1;PMS_P2;Temp;Humidity;BMP_temperature;BMP_pressure;BME280_temperature;BME280_humidity;BME280_pressure;Samples;Min_cycle;Max_cycle;Signal;HPM_P1;HPM_P2
2021/07/21 00:01:52;;;;;;;12.60;6.20;;;15.40;99.90;;;;;;5034353;28;20749;-78
2021/07/21 00:04:59;;;;;;;8.30;5.60;;;15.40;99.90;;;;;;5036407;28;20932;-78
2021/07/21 00:14:07;;;;;;;11.33;5.90;;;15.10;99.90;;;;;;5046631;28;20964;-74
2021/07/21 00:16:56;;;;;;;12.20;6.30;;;15.10;99.90;;;;;;5045373;28;20434;-74
2021/07/21 00:22:24;;;;;;;11.77;6.13;;;14.90;99.90;;;;;;5012670;28;20418;-74
2021/07/21 00:24:50;;;;;;;10.90;6.37;;;14.90;99.90;;;;;;4994971;28;20428;-74
2021/07/21 00:27:16;;;;;;;13.70;6.10;;;;;;;;;;4994548;28;20427;-74
2021/07/21 00:29:41;;;;;;;17.47;7.10;;;14.80;99.90;;;;;;4993809;28;20209;-74
2021/07/21 00:32:07;;;;;;;14.07;6.70;;;14.70;99.90;;;;;;4997206;28;20390;-74
2021/07/21 00:34:41;;;;;;;12.80;6.50;;;14.70;99.90;;;;;;4999884;28;20178;-74
2021/07/21 00:37:07;;;;;;;15.63;7.87;;;14.70;99.90;;;;;;5001380;28;20451;-74
2021/07/21 00:39:33;;;;;;;12.97;6.63;;;14.60;99.90;;;;;;4993438;28;20488;-74
2021/07/21 00:41:59;;;;;;;11.63;6.50;;;14.60;99.90;;;;;;5010658;28;20976;-74
2021/07/21 00:44:25;;;;;;;10.73;6.50;;;14.50;99.90;;;;;;5012993;28;20621;-77
2021/07/21 00:56:57;;;;;;;12.97;6.73;;;14.20;99.90;;;;;;5023089;28;20395;-78
2021/07/21 00:59:24;;;;;;;12.10;7.23;;;14.20;99.90;;;;;;5053311;28;20397;-78
2021/07/21 01:05:20;;;;;;;9.67;5.63;;;14.10;99.90;;;;;;5040628;28;20769;-78
2021/07/21 01:11:14;;;;;;;14.97;6.97;;;14.00;99.90;;;;;;5040754;28;20732;-77
2021/07/21 01:13:57;;;;;;;21.90;6.53;;;;;;;;;;5053574;28;20902;-74
2021/07/21 01:16:29;;;;;;;18.43;6.53;;;14.00;99.90;;;;;;5065945;28;20419;-74
2021/07/21 01:19:10;;;;;;;22.87;6.90;;;14.00;99.90;;;;;;5034208;28;20399;-74
2021/07/21 01:21:57;;;;;;;13.90;6.90;;;14.00;99.90;;;;;;5033940;28;20446;-74
2021/07/21 01:24:40;;;;;;;11.50;6.40;;;13.90;99.90;;;;;;5034134;28;20400;-74
2021/07/21 01:27:24;;;;;;;11.70;6.97;;;13.90;99.90;;;;;;5040438;28;20517;-74
2021/07/21 01:30:12;;;;;;;11.80;6.80;;;13.90;99.90;;;;;;5054012;28;20891;-78
2021/07/21 01:33:06;;;;;;;9.27;6.30;;;13.90;99.90;;;;;;5048127;28;20394;-78
2021/07/21 01:36:05;;;;;;;12.50;6.67;;;13.90;99.90;;;;;;5052088;28;20418;-78
2021/07/21 01:38:41;;;;;;;14.00;6.57;;;13.90;99.90;;;;;;5034056;28;20395;-78
2021/07/21 01:41:53;;;;;;;13.20;6.63;;;13.80;99.90;;;;;;5039404;28;20473;-78
2021/07/21 01:44:42;;;;;;;12.80;7.17;;;13.90;99.90;;;;;;5034087;28;20385;-77
2021/07/21 01:47:14;;;;;;;9.17;6.43;;;13.80;99.90;;;;;;5033996;28;20399;-78
2021/07/21 01:53:02;;;;;;;12.80;6.77;;;13.70;99.90;;;;;;5033466;28;20417;-77
2021/07/21 01:55:29;;;;;;;11.20;6.67;;;13.70;99.90;;;;;;5033477;28;20431;-78
2021/07/21 01:58:01;;;;;;;9.97;5.70;;;13.70;99.90;;;;;;5033627;28;20453;-77
2021/07/21 02:00:48;;;;;;;12.87;6.20;;;13.60;99.90;;;;;;5033949;28;20403;-77
2021/07/21 02:13:18;;;;;;;10.20;6.67;;;13.60;99.90;;;;;;5053064;28;20401;-75
2021/07/21 02:15:54;;;;;;;17.73;6.90;;;13.50;99.90;;;;;;5038604;28;20424;-74
2021/07/21 02:18:20;;;;;;;12.77;7.03;;;13.60;99.90;;;;;;5033576;28;20157;-74
2021/07/21 02:20:48;;;;;;;16.23;6.60;;;13.60;99.90;;;;;;5040798;28;20419;-75
2021/07/21 02:23:20;;;;;;;9.30;6.07;;;13.50;99.90;;;;;;5053313;28;20496;-74
2021/07/21 02:25:47;;;;;;;22.93;7.60;;;13.50;99.90;;;;;;5053380;28;20872;-74
2021/07/21 02:28:18;;;;;;;14.80;7.33;;;13.50;99.90;;;;;;5052671;28;20433;-78
2021/07/21 02:31:08;;;;;;;18.13;6.80;;;13.50;99.90;;;;;;5034835;28;20514;-78
2021/07/21 02:33:55;;;;;;;16.90;7.63;;;13.50;99.90;;;;;;5033775;28;20455;-78
2021/07/21 02:36:24;;;;;;;11.87;5.93;;;13.50;99.90;;;;;;5033502;28;20399;-78
2021/07/21 02:38:52;;;;;;;11.87;6.70;;;13.40;99.90;;;;;;5035352;28;20407;-78
2021/07/21 02:48:03;;;;;;;14.80;7.37;;;13.40;99.90;;;;;;5056672;28;20432;-78
2021/07/21 02:51:23;;;;;;;15.87;7.07;;;13.30;99.90;;;;;;5041596;28;20461;-78
2021/07/21 02:57:23;;;;;;;14.23;7.50;;;13.20;99.90;;;;;;5043713;28;20404;-77
2021/07/21 02:59:55;;;;;;;14.67;7.00;;;13.20;99.90;;;;;;5056766;28;20373;-75
2021/07/21 03:02:48;;;;;;;10.63;6.57;;;13.10;99.90;;;;;;5036940;28;20816;-75
2021/07/21 03:05:30;;;;;;;15.23;7.13;;;13.10;99.90;;;;;;5036863;28;20503;-74
2021/07/21 03:07:58;;;;;;;16.53;5.80;;;13.10;99.90;;;;;;5046353;28;20426;-74
2021/07/21 03:10:25;;;;;;;10.00;6.10;;;13.10;99.90;;;;;;5056544;28;20388;-74
2021/07/21 03:13:11;;;;;;;13.53;7.27;;;13.10;99.90;;;;;;5052168;28;20389;-74
2021/07/21 03:15:41;;;;;;;11.53;6.77;;;13.10;99.90;;;;;;5057016;28;20387;-74
2021/07/21 03:18:12;;;;;;;14.63;6.47;;;13.00;99.90;;;;;;5056263;28;20414;-74
2021/07/21 03:20:40;;;;;;;14.20;7.00;;;13.00;99.90;;;;;;5054790;28;20409;-75
2021/07/21 03:23:07;;;;;;;14.47;6.30;;;13.00;99.90;;;;;;5036642;28;20809;-74
2021/07/21 03:25:42;;;;;;;12.40;7.20;;;13.00;99.90;;;;;;5036320;28;20438;-74
2021/07/21 03:28:09;;;;;;;13.40;6.70;;;13.00;99.90;;;;;;5050417;28;20465;-75
2021/07/21 03:34:06;;;;;;;15.50;6.30;;;13.00;99.90;;;;;;5036016;28;20410;-78
2021/07/21 03:36:37;;;;;;;14.97;7.30;;;12.90;99.90;;;;;;5036286;28;20399;-78
2021/07/21 03:39:07;;;;;;;11.23;7.30;;;13.00;99.90;;;;;;5044522;28;20481;-79
2021/07/21 03:41:48;;;;;;;14.43;7.00;;;13.00;99.90;;;;;;5036315;28;20450;-76
2021/07/21 03:44:18;;;;;;;11.87;7.13;;;13.00;99.90;;;;;;5055761;28;20501;-76
2021/07/21 03:46:44;;;;;;;12.20;6.93;;;12.90;99.90;;;;;;5055874;28;20452;-75
2021/07/21 03:49:10;;;;;;;11.70;6.90;;;;;;;;;;5056007;28;20422;-75
2021/07/21 03:51:39;;;;;;;12.33;7.20;;;13.00;99.90;;;;;;5036691;28;20190;-76
2021/07/21 03:54:19;;;;;;;12.00;6.47;;;13.00;99.90;;;;;;5050915;28;20520;-75
2021/07/21 03:56:46;;;;;;;15.47;7.10;;;13.00;99.90;;;;;;5055912;28;20405;-75
2021/07/21 03:59:16;;;;;;;16.00;6.60;;;13.00;99.90;;;;;;5056124;28;20426;-75
2021/07/21 04:02:11;;;;;;;12.40;7.20;;;12.90;99.90;;;;;;5046546;28;20931;-76
2021/07/21 04:04:42;;;;;;;13.33;6.80;;;12.90;99.90;;;;;;5048395;28;20476;-75
2021/07/21 04:07:14;;;;;;;13.73;6.40;;;13.00;99.90;;;;;;5044147;28;20421;-75
2021/07/21 04:09:55;;;;;;;16.90;7.83;;;13.00;99.90;;;;;;5039222;28;20403;-75
2021/07/21 04:12:24;;;;;;;9.83;6.30;;;13.10;99.90;;;;;;5036092;28;20762;-75
2021/07/21 04:14:51;;;;;;;11.97;6.30;;;13.10;99.90;;;;;;5036081;28;20916;-77
2021/07/21 04:17:19;;;;;;;13.50;6.20;;;13.20;99.90;;;;;;5041857;28;20454;-77
2021/07/21 04:20:05;;;;;;;10.40;6.63;;;13.10;99.90;;;;;;5054328;28;20754;-77
2021/07/21 04:23:05;;;;;;;14.53;6.20;;;13.20;99.90;;;;;;5035538;28;20787;-77
2021/07/21 04:26:05;;;;;;;18.20;6.73;;;13.20;99.90;;;;;;5035766;28;20716;-77
2021/07/21 04:28:53;;;;;;;12.97;6.20;;;13.30;99.90;;;;;;5039727;28;20517;-77
2021/07/21 04:31:30;;;;;;;17.73;6.40;;;13.30;99.90;;;;;;5045990;28;20803;-75
2021/07/21 04:34:00;;;;;;;9.93;6.27;;;13.40;99.90;;;;;;5048523;28;20814;-75
2021/07/21 04:36:30;;;;;;;8.40;6.30;;;13.50;99.90;;;;;;5048945;28;20417;-75
2021/07/21 04:43:06;;;;;;;12.63;6.43;;;13.70;99.90;;;;;;5034599;28;20505;-78
2021/07/21 04:48:55;;;;;;;11.33;6.40;;;13.80;99.90;;;;;;5054580;28;20944;-78
2021/07/21 04:51:37;;;;;;;7.90;5.57;;;13.90;99.90;;;;;;5039994;28;20416;-79
2021/07/21 04:54:23;;;;;;;12.30;5.90;;;13.90;99.90;;;;;;5053238;28;20489;-78
2021/07/21 04:57:35;;;;;;;9.47;6.20;;;14.00;99.90;;;;;;5034942;28;20457;-78
2021/07/21 05:00:06;;;;;;;12.73;6.47;;;14.10;99.90;;;;;;5034385;28;20498;-79
2021/07/21 05:06:31;;;;;;;10.80;6.30;;;14.30;99.90;;;;;;5039767;28;20735;-77
2021/07/21 05:09:06;;;;;;;7.40;5.13;;;14.30;99.90;;;;;;5043677;28;20449;-79
2021/07/21 05:12:05;;;;;;;9.70;6.77;;;14.30;99.90;;;;;;5040203;28;20762;-78
2021/07/21 05:14:30;;;;;;;9.00;6.37;;;14.50;99.90;;;;;;5034320;28;20488;-76
2021/07/21 05:17:05;;;;;;;12.53;6.83;;;14.60;99.90;;;;;;5033463;28;20506;-76
2021/07/21 05:23:35;;;;;;;10.60;5.60;;;14.60;99.90;;;;;;5045367;28;20532;-76
2021/07/21 05:26:25;;;;;;;8.80;5.57;;;14.80;99.90;;;;;;5033951;28;20423;-76
2021/07/21 05:29:35;;;;;;;7.80;5.47;;;14.80;99.90;;;;;;5048025;28;20417;-76
2021/07/21 05:32:35;;;;;;;10.43;6.17;;;14.90;99.90;;;;;;5052082;28;20414;-76
2021/07/21 05:35:06;;;;;;;12.80;5.63;;;14.90;99.90;;;;;;5053812;28;20469;-76
2021/07/21 05:37:53;;;;;;;9.57;5.47;;;15.10;99.90;;;;;;5052224;28;20393;-76
2021/07/21 05:41:06;;;;;;;12.63;6.60;;;15.20;99.90;;;;;;5048201;28;20422;-76
2021/07/21 05:43:53;;;;;;;11.40;5.27;;;15.30;99.90;;;;;;5053724;28;20438;-76
2021/07/21 05:46:24;;;;;;;9.23;5.20;;;15.40;99.90;;;;;;5054108;28;20368;-76
2021/07/21 05:48:49;;;;;;;14.07;6.13;;;15.40;99.90;;;;;;5051991;28;20430;-76
2021/07/21 05:51:15;;;;;;;7.40;5.00;;;15.50;99.90;;;;;;5046809;28;20433;-75
2021/07/21 05:53:41;;;;;;;8.07;5.20;;;15.60;99.90;;;;;;5042307;28;20238;-75
2021/07/21 05:56:13;;;;;;;9.10;5.53;;;15.70;99.90;;;;;;5053286;28;20168;-83
2021/07/21 06:02:07;;;;;;;10.70;5.77;;;16.00;99.90;;;;;;5054326;28;20456;-84
2021/07/21 06:08:35;;;;;;;9.10;5.27;;;16.10;99.90;;;;;;5044228;28;20896;-85
2021/07/21 06:11:11;;;;;;;8.97;5.73;;;16.20;99.90;;;;;;5039849;28;20421;-84
2021/07/21 06:14:00;;;;;;;8.43;4.90;;;16.40;99.90;;;;;;5045986;28;20392;-87
2021/07/21 06:16:47;;;;;;;10.83;4.80;;;16.40;99.90;;;;;;5047002;28;20931;-81
2021/07/21 06:20:05;;;;;;;7.57;4.57;;;16.40;99.90;;;;;;5047866;28;20734;-81
2021/07/21 06:22:59;;;;;;;15.30;5.27;;;16.60;99.90;;;;;;5057518;28;20439;-82
2021/07/21 06:25:35;;;;;;;23.63;4.80;;;16.70;99.90;;;;;;5057250;28;20410;-82
2021/07/21 06:28:01;;;;;;;13.07;6.20;;;;;;;;;;5050429;28;20437;-82
2021/07/21 06:30:27;;;;;;;7.70;4.97;;;16.90;99.90;;;;;;5049265;28;20474;-84
2021/07/21 06:32:53;;;;;;;8.10;5.33;;;;;;;;;;5041560;28;20464;-84
2021/07/21 06:35:18;;;;;;;19.43;4.90;;;17.10;99.90;;;;;;5052899;28;20191;-84
2021/07/21 06:37:44;;;;;;;10.10;5.23;;;17.20;99.90;;;;;;5040942;28;20397;-84
2021/07/21 06:40:10;;;;;;;7.63;4.90;;;17.30;99.90;;;;;;5071968;28;20190;-84
2021/07/21 06:42:36;;;;;;;8.60;5.07;;;19.10;99.90;;;;;;5051744;28;20205;-84
2021/07/21 06:48:23;;;;;;;13.27;5.07;;;17.60;99.90;;;;;;5056302;28;20222;-82
2021/07/21 06:51:17;;;;;;;7.73;4.10;;;17.60;99.90;;;;;;5055911;28;20435;-82
2021/07/21 06:54:05;;;;;;;10.13;4.30;;;17.80;99.90;;;;;;5057035;28;20158;-82
2021/07/21 06:56:35;;;;;;;10.17;4.43;;;17.80;99.90;;;;;;5056812;28;20399;-82
2021/07/21 06:59:36;;;;;;;5.67;4.20;;;18.00;99.90;;;;;;5052154;28;20414;-83
2021/07/21 07:02:06;;;;;;;10.80;4.13;;;18.20;99.90;;;;;;5052444;28;20567;-84
2021/07/21 07:04:59;;;;;;;4.97;4.40;;;18.20;99.90;;;;;;5055870;28;20407;-84
2021/07/21 07:07:41;;;;;;;6.60;4.20;;;18.50;99.90;;;;;;5055512;28;20424;-84
2021/07/21 07:10:35;;;;;;;11.17;4.20;;;18.70;99.90;;;;;;5055360;28;20417;-83
2021/07/21 07:13:05;;;;;;;8.87;4.20;;;18.70;99.90;;;;;;5055379;28;20507;-83
2021/07/21 07:15:32;;;;;;;12.77;4.60;;;;;;;;;;5055644;28;20467;-82
2021/07/21 07:18:35;;;;;;;6.53;4.00;;;18.90;99.90;;;;;;5040351;28;20491;-82
2021/07/21 07:21:17;;;;;;;5.70;4.20;;;19.00;99.90;;;;;;5035123;28;20410;-81
2021/07/21 07:24:05;;;;;;;7.63;3.80;;;19.20;99.90;;;;;;5035995;28;20418;-81
2021/07/21 07:26:31;;;;;;;7.10;4.20;;;;;;;;;;5038460;28;20468;-81
2021/07/21 07:28:57;;;;;;;8.20;4.47;;;;;;;;;;5046520;28;20421;-81
2021/07/21 07:31:23;;;;;;;7.40;4.23;;;19.40;99.90;;;;;;5054588;28;20469;-83
2021/07/21 07:33:49;;;;;;;10.63;4.10;;;19.40;99.90;;;;;;5052451;28;20968;-83
2021/07/21 07:36:15;;;;;;;8.43;4.60;;;19.50;99.90;;;;;;5044830;28;20418;-84
2021/07/21 07:38:41;;;;;;;8.00;3.80;;;19.60;99.90;;;;;;5053793;28;20407;-89
2021/07/21 07:41:07;;;;;;;9.33;4.50;;;19.70;99.90;;;;;;5085374;28;20407;-83
2021/07/21 07:43:36;;;;;;;7.00;3.70;;;19.80;99.90;;;;;;5061299;28;20203;-83
2021/07/21 07:46:07;;;;;;;8.50;5.10;;;19.90;99.90;;;;;;5087825;28;20190;-83
2021/07/21 07:48:33;;;;;;;4.50;3.60;;;20.00;99.90;;;;;;5053866;28;20515;-83
2021/07/21 07:50:59;;;;;;;7.20;4.00;;;20.00;99.90;;;;;;5086309;28;20515;-83
2021/07/21 07:53:25;;;;;;;5.73;3.60;;;20.20;99.90;;;;;;5053455;28;20441;-84
2021/07/21 07:55:51;;;;;;;10.33;4.27;;;20.10;99.90;;;;;;5048151;28;20291;-83
2021/07/21 07:58:16;;;;;;;8.97;4.20;;;20.10;99.90;;;;;;5059370;28;20520;-84
2021/07/21 08:00:42;;;;;;;5.83;4.00;;;20.30;99.90;;;;;;5053815;28;20662;-83
2021/07/21 08:03:08;;;;;;;7.53;4.13;;;20.30;99.90;;;;;;5052979;28;20274;-81
2021/07/21 08:05:34;;;;;;;6.40;4.20;;;20.50;99.90;;;;;;5039106;28;20419;-82
2021/07/21 08:08:03;;;;;;;10.43;3.60;;;;;;;;;;5034769;28;20222;-81
2021/07/21 08:10:28;;;;;;;7.70;4.40;;;20.80;99.90;;;;;;5041681;28;20525;-82
2021/07/21 08:12:54;;;;;;;15.60;4.57;;;20.70;99.90;;;;;;5043197;28;20439;-81
2021/07/21 08:15:20;;;;;;;10.80;3.97;;;20.90;99.90;;;;;;5042964;28;20588;-81
2021/07/21 08:17:46;;;;;;;13.23;4.03;;;20.90;99.90;;;;;;5033468;28;20662;-82
2021/07/21 08:20:12;;;;;;;7.13;3.77;;;21.00;99.90;;;;;;5037188;28;20199;-81
2021/07/21 08:22:41;;;;;;;16.20;3.80;;;21.10;99.90;;;;;;5045474;28;20681;-81
2021/07/21 08:25:15;;;;;;;6.40;4.00;;;21.10;99.90;;;;;;5051040;28;20433;-81
2021/07/21 08:27:41;;;;;;;6.10;4.20;;;21.20;99.90;;;;;;5045333;28;20831;-81
2021/07/21 08:30:12;;;;;;;7.33;4.23;;;21.30;99.90;;;;;;5042960;28;20941;-81
2021/07/21 08:32:39;;;;;;;6.93;4.03;;;21.30;99.90;;;;;;5054011;28;20419;-81
2021/07/21 08:35:04;;;;;;;6.50;4.47;;;21.40;99.90;;;;;;5050329;28;20949;-81
2021/07/21 08:37:30;;;;;;;8.53;4.10;;;;;;;;;;5048316;28;20428;-81
2021/07/21 08:39:58;;;;;;;8.27;3.67;;;21.60;99.90;;;;;;5041209;28;20181;-81
2021/07/21 08:42:25;;;;;;;8.93;3.37;;;;;;;;;;5033561;28;20460;-81
2021/07/21 08:44:51;;;;;;;6.33;3.83;;;21.70;99.90;;;;;;5032783;28;20415;-81
2021/07/21 08:47:16;;;;;;;9.60;3.70;;;21.80;99.90;;;;;;5039133;28;20436;-82
2021/07/21 08:49:42;;;;;;;6.10;3.43;;;;;;;;;;5035987;28;20695;-82
2021/07/21 08:52:11;;;;;;;4.50;3.53;;;21.90;99.90;;;;;;5045179;28;20559;-82
2021/07/21 08:54:39;;;;;;;4.40;3.10;;;22.00;99.90;;;;;;5074892;28;20572;-82
2021/07/21 08:57:05;;;;;;;6.23;3.40;;;22.10;99.90;;;;;;5050873;28;20425;-83
2021/07/21 08:59:31;;;;;;;5.20;3.60;;;22.20;99.90;;;;;;5052434;28;20940;-80
2021/07/21 09:01:57;;;;;;;5.87;3.53;;;22.30;99.90;;;;;;5053906;28;20455;-74
2021/07/21 09:04:22;;;;;;;8.43;3.83;;;22.40;99.90;;;;;;5045795;28;20437;-74
2021/07/21 09:06:48;;;;;;;4.37;3.17;;;22.40;99.90;;;;;;5037497;28;20182;-74
2021/07/21 09:09:14;;;;;;;4.80;3.23;;;22.50;99.90;;;;;;5033546;28;20644;-74
2021/07/21 09:11:40;;;;;;;4.50;3.50;;;22.50;99.90;;;;;;5034408;28;20266;-74
2021/07/21 09:14:07;;;;;;;8.53;3.57;;;22.30;99.90;;;;;;5033637;28;20195;-74
2021/07/21 09:16:32;;;;;;;3.73;2.80;;;22.30;99.90;;;;;;5051410;28;20446;-74
2021/07/21 09:18:58;;;;;;;4.07;3.27;;;22.60;99.90;;;;;;5042753;28;20486;-78
2021/07/21 09:21:26;;;;;;;4.87;3.00;;;22.70;99.90;;;;;;5045581;28;20514;-78
2021/07/21 09:27:35;;;;;;;3.50;3.17;;;22.70;99.90;;;;;;5038227;28;20429;-78
2021/07/21 09:30:53;;;;;;;4.03;3.57;;;22.60;99.90;;;;;;5043481;28;20413;-78
2021/07/21 09:33:21;;;;;;;12.57;3.80;;;22.70;99.90;;;;;;5052655;28;20420;-74
2021/07/21 09:35:51;;;;;;;7.20;3.50;;;22.70;99.90;;;;;;5047715;28;20458;-74
2021/07/21 09:38:28;;;;;;;8.20;3.40;;;22.90;99.90;;;;;;5051185;28;20407;-74
2021/07/21 09:41:05;;;;;;;7.03;3.70;;;23.10;99.90;;;;;;5053318;28;20397;-75
2021/07/21 09:43:32;;;;;;;9.97;3.87;;;23.20;99.90;;;;;;5033742;28;20461;-75
2021/07/21 09:46:10;;;;;;;11.00;3.77;;;23.10;99.90;;;;;;5033555;28;20406;-75
2021/07/21 09:48:44;;;;;;;4.30;3.40;;;23.20;99.90;;;;;;5034060;28;20399;-77
2021/07/21 09:51:34;;;;;;;8.67;3.20;;;23.40;99.90;;;;;;5034079;28;20414;-77
2021/07/21 09:54:14;;;;;;;5.07;3.33;;;23.50;99.90;;;;;;5046850;28;20454;-77
2021/07/21 09:56:53;;;;;;;5.90;3.50;;;23.50;99.90;;;;;;5053619;28;20415;-77
2021/07/21 09:59:28;;;;;;;5.70;3.60;;;23.60;99.90;;;;;;5053540;28;20430;-77
2021/07/21 10:11:59;;;;;;;7.50;3.70;;;24.00;99.90;;;;;;5049882;28;20399;-80
2021/07/21 10:24:34;;;;;;;4.33;3.37;;;24.30;99.90;;;;;;5033284;28;20394;-78
2021/07/21 10:31:12;;;;;;;3.50;3.20;;;24.40;99.90;;;;;;5033272;28;20860;-79
2021/07/21 10:33:47;;;;;;;6.10;3.50;;;24.50;99.90;;;;;;5050847;28;20420;-78
2021/07/21 10:36:19;;;;;;;4.07;3.50;;;24.50;99.90;;;;;;5046021;28;20421;-78
2021/07/21 10:38:53;;;;;;;7.80;4.40;;;24.50;99.90;;;;;;5039652;28;20489;-78
2021/07/21 10:41:20;;;;;;;4.33;3.20;;;24.60;99.90;;;;;;5039260;28;20438;-78
2021/07/21 10:43:48;;;;;;;6.97;3.57;;;24.70;99.90;;;;;;5054627;28;20471;-75
2021/07/21 10:46:43;;;;;;;3.27;2.97;;;24.70;99.90;;;;;;5051803;28;20455;-75
2021/07/21 10:49:14;;;;;;;10.27;3.37;;;;;;;;;;5033280;28;20773;-74
2021/07/21 10:54:44;;;;;;;5.33;3.10;;;24.80;99.90;;;;;;5032503;28;20429;-74
2021/07/21 11:00:25;;;;;;;4.80;3.27;;;24.90;99.90;;;;;;5052988;28;20417;-74
2021/07/21 11:02:52;;;;;;;14.13;3.40;;;25.10;99.90;;;;;;5053914;28;20467;-75
2021/07/21 11:05:39;;;;;;;3.93;3.33;;;25.10;99.90;;;;;;5040976;28;20419;-75
2021/07/21 11:08:14;;;;;;;3.60;3.00;;;25.30;99.90;;;;;;5054356;28;20481;-75
2021/07/21 11:10:45;;;;;;;4.80;3.30;;;25.30;99.90;;;;;;5055285;28;20429;-75
2021/07/21 11:13:13;;;;;;;3.43;2.73;;;25.30;99.90;;;;;;5041402;28;20422;-75
2021/07/21 11:15:47;;;;;;;6.77;3.27;;;25.30;99.90;;;;;;5055426;28;20479;-75
2021/07/21 11:18:21;;;;;;;3.07;2.77;;;25.40;99.90;;;;;;5054689;28;20456;-74
2021/07/21 11:20:59;;;;;;;5.03;3.53;;;25.40;99.90;;;;;;5050722;28;20475;-74
2021/07/21 11:23:52;;;;;;;5.20;2.87;;;25.30;99.90;;;;;;5051334;28;21026;-74
2021/07/21 11:26:36;;;;;;;5.70;3.07;;;25.40;99.90;;;;;;5047237;28;20910;-74
2021/07/21 11:29:24;;;;;;;7.90;2.87;;;25.60;99.90;;;;;;5035523;28;20438;-75
2021/07/21 11:31:53;;;;;;;6.13;3.03;;;25.60;99.90;;;;;;5036149;28;20414;-74
2021/07/21 11:34:41;;;;;;;4.87;2.73;;;25.70;99.90;;;;;;5047231;28;20464;-78
2021/07/21 11:37:29;;;;;;;4.90;2.80;;;25.90;99.90;;;;;;5039765;28;20922;-77
2021/07/21 11:40:42;;;;;;;6.00;2.80;;;25.90;99.90;;;;;;5049951;28;20429;-77
2021/07/21 11:43:35;;;;;;;4.80;2.90;;;25.90;99.90;;;;;;5012612;28;21275;-77
2021/07/21 11:46:08;;;;;;;9.50;2.50;;;26.00;99.90;;;;;;5012575;28;20422;-77
2021/07/21 11:48:34;;;;;;;2.90;2.70;;;26.10;99.90;;;;;;5012622;28;20426;-77
2021/07/21 11:51:01;;;;;;;4.00;2.37;;;26.10;99.90;;;;;;5004284;28;20445;-77
2021/07/21 11:53:27;;;;;;;3.40;2.60;;;26.20;99.90;;;;;;5013149;28;20808;-77
2021/07/21 11:55:53;;;;;;;8.87;2.70;;;26.20;99.90;;;;;;5012581;28;20518;-77
2021/07/21 11:58:19;;;;;;;4.37;2.93;;;26.20;99.90;;;;;;5012565;28;20432;-77
2021/07/21 12:00:50;;;;;;;3.00;2.80;;;26.30;99.90;;;;;;5012886;28;20592;-78
2021/07/21 12:03:16;;;;;;;3.37;3.07;;;26.30;99.90;;;;;;5012631;28;20199;-75
2021/07/21 12:05:57;;;;;;;7.13;3.00;;;26.40;99.90;;;;;;5012304;28;20439;-75
2021/07/21 12:08:23;;;;;;;7.80;2.67;;;26.50;99.90;;;;;;5011967;28;20883;-74
2021/07/21 12:10:50;;;;;;;3.70;2.90;;;26.50;99.90;;;;;;5011023;28;20468;-74
2021/07/21 12:13:19;;;;;;;9.30;3.23;;;26.60;99.90;;;;;;5011673;28;20497;-74
2021/07/21 12:15:45;;;;;;;6.10;2.70;;;26.60;99.90;;;;;;5012540;28;20421;-74
2021/07/21 12:18:14;;;;;;;5.10;2.90;;;26.60;99.90;;;;;;5013114;28;20461;-74
2021/07/21 12:20:42;;;;;;;4.33;2.90;;;26.70;99.90;;;;;;5047224;28;20512;-77
2021/07/21 12:23:08;;;;;;;11.73;2.90;;;;;;;;;;5051181;28;20461;-77
2021/07/21 12:25:34;;;;;;;3.10;2.80;;;26.80;99.90;;;;;;5053433;28;20439;-77
2021/07/21 12:28:01;;;;;;;5.33;2.73;;;26.90;99.90;;;;;;5045725;28;20491;-77
2021/07/21 12:30:31;;;;;;;3.70;2.97;;;27.00;99.90;;;;;;5049474;28;20495;-78
2021/07/21 12:32:58;;;;;;;3.17;2.80;;;27.10;99.90;;;;;;5038258;28;20965;-78
2021/07/21 12:35:29;;;;;;;3.27;2.97;;;27.10;99.90;;;;;;5042810;28;20428;-75
2021/07/21 12:37:57;;;;;;;3.20;2.87;;;27.40;99.90;;;;;;5041447;28;20479;-75
2021/07/21 12:40:27;;;;;;;5.30;3.00;;;27.50;99.90;;;;;;5044578;28;20803;-75
2021/07/21 12:42:56;;;;;;;4.13;2.83;;;27.40;99.90;;;;;;5035997;28;20966;-75
2021/07/21 12:45:32;;;;;;;3.00;2.70;;;27.40;99.90;;;;;;5044220;28;20438;-75
2021/07/21 12:47:58;;;;;;;5.50;2.70;;;27.50;99.90;;;;;;5049872;28;20465;-74
2021/07/21 12:50:32;;;;;;;3.73;2.97;;;27.50;99.90;;;;;;5053188;28;20439;-77
2021/07/21 12:53:05;;;;;;;13.97;3.07;;;27.60;99.90;;;;;;5053178;28;20426;-77
2021/07/21 12:55:41;;;;;;;5.03;3.20;;;27.40;99.90;;;;;;5053931;28;20429;-78
2021/07/21 12:58:10;;;;;;;3.90;2.97;;;27.30;99.90;;;;;;5040996;28;20420;-77
2021/07/21 13:00:43;;;;;;;3.23;2.87;;;27.30;99.90;;;;;;5050756;28;20419;-79
2021/07/21 13:03:11;;;;;;;3.40;2.83;;;27.30;99.90;;;;;;5040991;28;20464;-77
2021/07/21 13:05:54;;;;;;;3.90;2.80;;;27.50;99.90;;;;;;5065361;28;20465;-77
2021/07/21 13:08:24;;;;;;;4.33;3.00;;;27.50;99.90;;;;;;5053376;28;20438;-77
2021/07/21 13:11:09;;;;;;;3.90;3.07;;;27.40;99.90;;;;;;5051638;28;21160;-77
2021/07/21 13:13:37;;;;;;;2.70;2.50;;;27.40;99.90;;;;;;5053131;28;20454;-77
2021/07/21 13:16:13;;;;;;;3.37;2.90;;;27.60;99.90;;;;;;5052730;28;20838;-77
2021/07/21 13:18:49;;;;;;;3.43;3.13;;;27.60;99.90;;;;;;5052656;28;20448;-77
2021/07/21 13:21:38;;;;;;;4.37;3.00;;;27.40;99.90;;;;;;5052055;28;20445;-74
2021/07/21 13:24:13;;;;;;;3.07;2.77;;;27.60;99.90;;;;;;5045819;28;20450;-84
2021/07/21 13:27:12;;;;;;;3.23;2.70;;;27.60;99.90;;;;;;5041810;28;20430;-83
2021/07/21 13:29:45;;;;;;;7.50;2.93;;;27.80;99.90;;;;;;5042933;28;20445;-79
2021/07/21 13:32:20;;;;;;;6.27;3.30;;;27.90;99.90;;;;;;5051501;28;20444;-79
2021/07/21 13:38:09;;;;;;;5.40;2.80;;;28.10;99.90;;;;;;5372298;23;20499;-80
2021/07/21 13:40:35;;;;;;;4.40;3.20;;;28.10;99.90;;;;;;5043546;28;20443;-80
2021/07/21 13:43:08;;;;;;;6.20;2.90;;;28.20;99.90;;;;;;5049992;28;21028;-80
2021/07/21 13:45:34;;;;;;;5.50;3.10;;;28.20;99.90;;;;;;5046784;28;20433;-78
2021/07/21 13:48:02;;;;;;;4.17;3.43;;;28.30;99.90;;;;;;5043460;28;20835;-78
2021/07/21 13:50:29;;;;;;;3.97;3.57;;;28.40;99.90;;;;;;5047629;28;20497;-80
2021/07/21 13:53:09;;;;;;;3.30;2.53;;;28.40;99.90;;;;;;5048470;28;20988;-84
2021/07/21 13:55:35;;;;;;;8.47;3.40;;;28.40;99.90;;;;;;5045903;28;20460;-86
2021/07/21 13:58:02;;;;;;;5.93;3.37;;;28.40;99.90;;;;;;5052577;28;20400;-86
2021/07/21 14:00:28;;;;;;;3.63;3.30;;;28.40;99.90;;;;;;5044747;28;20509;-86
2021/07/21 14:03:00;;;;;;;3.87;2.97;;;28.50;99.90;;;;;;5047767;28;20536;-86
2021/07/21 14:05:34;;;;;;;5.27;2.90;;;28.60;99.90;;;;;;5052283;28;20412;-84
2021/07/21 14:08:01;;;;;;;3.33;3.00;;;28.50;99.90;;;;;;5052677;28;20479;-83
2021/07/21 14:10:27;;;;;;;5.30;2.70;;;28.60;99.90;;;;;;5041362;28;20425;-83
2021/07/21 14:12:54;;;;;;;3.57;2.83;;;28.60;99.90;;;;;;5052571;28;20397;-82
2021/07/21 14:15:22;;;;;;;8.93;3.47;;;28.70;99.90;;;;;;5041914;28;20508;-82
2021/07/21 14:17:50;;;;;;;9.50;3.13;;;28.50;99.90;;;;;;5031263;28;20426;-82
2021/07/21 14:20:16;;;;;;;13.63;4.20;;;28.60;99.90;;;;;;5031652;28;20759;-84
2021/07/21 14:22:44;;;;;;;4.57;2.90;;;28.70;99.90;;;;;;5049846;28;20585;-79
2021/07/21 14:25:14;;;;;;;3.20;2.90;;;28.80;99.90;;;;;;5050653;28;20580;-77
2021/07/21 14:27:43;;;;;;;3.90;3.03;;;28.80;99.90;;;;;;5046270;28;20440;-81
2021/07/21 14:30:10;;;;;;;4.30;3.00;;;29.00;99.90;;;;;;5036615;28;20417;-74
2021/07/21 14:33:04;;;;;;;4.40;2.70;;;28.60;99.20;;;;;;5033217;28;20402;-81
2021/07/21 14:35:53;;;;;;;3.80;3.40;;;28.60;99.90;;;;;;5045896;28;20425;-81
2021/07/21 14:38:23;;;;;;;5.00;3.40;;;28.80;99.90;;;;;;5049225;28;20532;-81
2021/07/21 14:40:51;;;;;;;4.20;3.10;;;28.90;99.90;;;;;;5039707;28;21004;-82
2021/07/21 14:43:35;;;;;;;3.17;2.87;;;29.00;99.90;;;;;;5054460;28;20536;-80
2021/07/21 14:46:32;;;;;;;4.57;3.40;;;29.20;99.90;;;;;;5050209;28;20515;-81
2021/07/21 14:49:23;;;;;;;4.63;3.20;;;29.20;99.90;;;;;;5056386;28;20416;-81
2021/07/21 14:51:51;;;;;;;4.00;3.33;;;;;;;;;;5057069;28;20467;-80
2021/07/21 14:54:45;;;;;;;6.60;3.10;;;29.20;99.90;;;;;;5057474;28;20391;-83
2021/07/21 14:57:16;;;;;;;3.60;3.03;;;29.20;99.90;;;;;;5036790;28;20397;-82
2021/07/21 14:59:42;;;;;;;5.23;3.10;;;29.20;99.90;;;;;;5036657;28;20398;-79
2021/07/21 15:02:21;;;;;;;3.83;3.40;;;29.20;99.90;;;;;;5035713;28;20457;-80
2021/07/21 15:04:52;;;;;;;2.93;2.67;;;29.40;99.90;;;;;;5038064;28;20917;-78
2021/07/21 15:07:56;;;;;;;8.40;3.17;;;29.40;99.90;;;;;;5051979;28;20421;-82
2021/07/21 15:10:27;;;;;;;4.50;3.67;;;29.30;99.70;;;;;;5050069;28;20424;-78
2021/07/21 15:12:54;;;;;;;4.83;3.60;;;29.40;98.60;;;;;;5042444;28;20501;-79
2021/07/21 15:15:22;;;;;;;7.83;3.47;;;29.40;99.90;;;;;;5052771;28;20416;-78
2021/07/21 15:17:51;;;;;;;3.63;3.33;;;29.60;99.40;;;;;;5056075;28;20416;-79
2021/07/21 15:20:18;;;;;;;4.70;3.60;;;29.70;98.50;;;;;;5056425;28;20890;-79
2021/07/21 15:22:47;;;;;;;3.50;3.20;;;30.70;99.20;;;;;;5055812;28;20565;-78